sensor_id;sensor_type;location;lat;lon;timestamp;temperature;humidity
48946;DHT22;34999;50.940;3.998;2022-07-21T00:00:55;18.30;99.90
48946;DHT22;34999;50.940;3.998;2022-07-21T00:03:24;18.20;99.90
48946;DHT22;34999;50.940;3.998;2022-07-21T00:05:53;18.20;99.90
48946;DHT22;34999;50.940;3.998;2022-07-21T00:08:21;18.20;99.90
48946;DHT22;34999;50.940;3.998;2022-07-21T00:10:50;18.10;99.90
48946;DHT22;34999;50.940;3.998;2022-07-21T00:13:20;18.10;99.90
48946;DHT22;34999;50.940;3.998;2022-07-21T00:15:49;18.10;99.90
48946;DHT22;34999;50.940;3.998;2022-07-21T00:18:18;18.10;99.90
48946;DHT22;34999;50.940;3.998;2022-07-21T00:20:48;18.10;99.90
48946;DHT22;34999;50.940;3.998;2022-07-21T00:23:17;18.10;99.90
48946;DHT22;34999;50.940;3.998;2022-07-21T00:25:45;18.00;99.90
48946;DHT22;34999;50.940;3.998;2022-07-21T00:28:14;18.00;99.90
48946;DHT22;34999;50.940;3.998;2022-07-21T00:30:44;18.00;99.90
48946;DHT22;34999;50.940;3.998;2022-07-21T00:33:12;18.00;99.90
48946;DHT22;34999;50.940;3.998;2022-07-21T00:35:41;18.00;99.90
48946;DHT22;34999;50.940;3.998;2022-07-21T00:38:09;18.00;99.90
48946;DHT22;34999;50.940;3.998;2022-07-21T00:40:38;18.00;99.90
48946;DHT22;34999;50.940;3.998;2022-07-21T00:43:06;18.00;99.90
48946;DHT22;34999;50.940;3.998;2022-07-21T00:45:35;18.00;99.90
48946;DHT22;34999;50.940;3.998;2022-07-21T00:48:06;17.90;99.90
48946;DHT22;34999;50.940;3.998;2022-07-21T00:50:34;17.90;99.90
48946;DHT22;34999;50.940;3.998;2022-07-21T00:53:03;17.80;99.90
48946;DHT22;34999;50.940;3.998;2022-07-21T00:55:31;17.80;99.90
48946;DHT22;34999;50.940;3.998;2022-07-21T00:58:00;17.70;99.90
48946;DHT22;34999;50.940;3.998;2022-07-21T01:00:29;17.70;99.90
48946;DHT22;34999;50.940;3.998;2022-07-21T01:03:06;17.70;99.90
48946;DHT22;34999;50.940;3.998;2022-07-21T01:05:35;17.60;99.90
48946;DHT22;34999;50.940;3.998;2022-07-21T01:08:05;17.60;99.90
48946;DHT22;34999;50.940;3.998;2022-07-21T01:10:33;17.60;99.90
48946;DHT22;34999;50.940;3.998;2022-07-21T01:13:02;17.60;99.90
48946;DHT22;34999;50.940;3.998;2022-07-21T01:15:30;17.60;99.90
48946;DHT22;34999;50.940;3.998;2022-07-21T01:17:59;17.60;99.90
48946;DHT22;34999;50.940;3.998;2022-07-21T01:20:33;17.60;99.90
48946;DHT22;34999;50.940;3.998;2022-07-21T01:23:03;17.60;99.90
48946;DHT22;34999;50.940;3.998;2022-07-21T01:25:32;17.50;99.90
48946;DHT22;34999;50.940;3.998;2022-07-21T01:28:00;17.50;99.90
48946;DHT22;34999;50.940;3.998;2022-07-21T01:30:28;17.40;99.90
48946;DHT22;34999;50.940;3.998;2022-07-21T01:32:57;17.40;99.90
48946;DHT22;34999;50.940;3.998;2022-07-21T01:35:26;17.40;99.90
48946;DHT22;34999;50.940;3.998;2022-07-21T01:37:54;17.30;99.90
48946;DHT22;34999;50.940;3.998;2022-07-21T01:40:24;17.30;99.90
48946;DHT22;34999;50.940;3.998;2022-07-21T01:43:10;17.30;99.90
48946;DHT22;34999;50.940;3.998;2022-07-21T01:45:39;17.30;99.90
48946;DHT22;34999;50.940;3.998;2022-07-21T01:48:08;17.20;99.90
48946;DHT22;34999;50.940;3.998;2022-07-21T01:50:37;17.20;99.90
48946;DHT22;34999;50.940;3.998;2022-07-21T01:53:06;17.30;99.90
48946;DHT22;34999;50.940;3.998;2022-07-21T01:55:36;17.20;99.90
48946;DHT22;34999;50.940;3.998;2022-07-21T01:58:04;17.20;99.90
48946;DHT22;34999;50.940;3.998;2022-07-21T02:00:33;17.20;99.90
48946;DHT22;34999;50.940;3.998;2022-07-21T02:06:08;17.30;99.90
48946;DHT22;34999;50.940;3.998;2022-07-21T02:08:37;17.30;99.90
48946;DHT22;34999;50.940;3.998;2022-07-21T02:11:07;17.30;99.90
48946;DHT22;34999;50.940;3.998;2022-07-21T02:13:36;17.30;99.90
48946;DHT22;34999;50.940;3.998;2022-07-21T02:16:05;17.40;99.90
48946;DHT22;34999;50.940;3.998;2022-07-21T02:18:33;17.40;99.90
48946;DHT22;34999;50.940;3.998;2022-07-21T02:21:03;17.40;99.90
48946;DHT22;34999;50.940;3.998;2022-07-21T02:23:32;17.30;99.90
48946;DHT22;34999;50.940;3.998;2022-07-21T02:26:01;17.30;99.90
48946;DHT22;34999;50.940;3.998;2022-07-21T02:28:31;17.30;99.90
48946;DHT22;34999;50.940;3.998;2022-07-21T02:31:00;17.30;99.90
48946;DHT22;34999;50.940;3.998;2022-07-21T02:33:28;17.30;99.90
48946;DHT22;34999;50.940;3.998;2022-07-21T02:35:57;17.30;99.90
48946;DHT22;34999;50.940;3.998;2022-07-21T02:38:25;17.30;99.90
48946;DHT22;34999;50.940;3.998;2022-07-21T02:40:53;17.30;99.90
48946;DHT22;34999;50.940;3.998;2022-07-21T02:43:24;17.30;99.90
48946;DHT22;34999;50.940;3.998;2022-07-21T02:45:53;17.30;99.90
48946;DHT22;34999;50.940;3.998;2022-07-21T02:48:22;17.40;99.90
48946;DHT22;34999;50.940;3.998;2022-07-21T02:50:51;17.40;99.90
48946;DHT22;34999;50.940;3.998;2022-07-21T02:53:20;17.40;99.90
48946;DHT22;34999;50.940;3.998;2022-07-21T02:55:51;17.40;99.90
48946;DHT22;34999;50.940;3.998;2022-07-21T02:58:21;17.40;99.90
48946;DHT22;34999;50.940;3.998;2022-07-21T03:00:51;17.40;99.90
48946;DHT22;34999;50.940;3.998;2022-07-21T03:03:42;17.40;99.90
48946;DHT22;34999;50.940;3.998;2022-07-21T03:06:10;17.40;99.90
48946;DHT22;34999;50.940;3.998;2022-07-21T03:08:38;17.40;99.90
48946;DHT22;34999;50.940;3.998;2022-07-21T03:11:07;17.40;99.90
48946;DHT22;34999;50.940;3.998;2022-07-21T03:13:36;17.40;99.90
48946;DHT22;34999;50.940;3.998;2022-07-21T03:16:04;17.40;99.90
48946;DHT22;34999;50.940;3.998;2022-07-21T03:18:33;17.50;99.90
48946;DHT22;34999;50.940;3.998;2022-07-21T03:21:03;17.50;99.90
48946;DHT22;34999;50.940;3.998;2022-07-21T03:23:32;17.50;99.90
48946;DHT22;34999;50.940;3.998;2022-07-21T03:26:00;17.50;99.90
48946;DHT22;34999;50.940;3.998;2022-07-21T03:28:29;17.50;99.90
48946;DHT22;34999;50.940;3.998;2022-07-21T03:30:57;17.60;99.90
48946;DHT22;34999;50.940;3.998;2022-07-21T03:33:26;17.60;99.90
48946;DHT22;34999;50.940;3.998;2022-07-21T03:35:54;17.60;99.90
48946;DHT22;34999;50.940;3.998;2022-07-21T03:38:26;17.70;99.90
48946;DHT22;34999;50.940;3.998;2022-07-21T03:40:55;17.70;99.90
48946;DHT22;34999;50.940;3.998;2022-07-21T03:43:23;17.70;99.90
48946;DHT22;34999;50.940;3.998;2022-07-21T03:45:51;17.80;99.90
48946;DHT22;34999;50.940;3.998;2022-07-21T03:48:20;17.80;99.90
48946;DHT22;34999;50.940;3.998;2022-07-21T03:50:48;17.90;99.90
48946;DHT22;34999;50.940;3.998;2022-07-21T03:53:17;17.90;99.90
48946;DHT22;34999;50.940;3.998;2022-07-21T03:55:47;17.90;99.90
48946;DHT22;34999;50.940;3.998;2022-07-21T03:58:15;17.90;99.90
48946;DHT22;34999;50.940;3.998;2022-07-21T04:00:44;18.00;99.90
48946;DHT22;34999;50.940;3.998;2022-07-21T04:03:15;18.00;99.90
48946;DHT22;34999;50.940;3.998;2022-07-21T04:05:43;18.00;99.90
48946;DHT22;34999;50.940;3.998;2022-07-21T04:08:12;18.00;99.90
48946;DHT22;34999;50.940;3.998;2022-07-21T04:10:42;18.00;99.90
48946;DHT22;34999;50.940;3.998;2022-07-21T04:13:52;18.00;99.90
48946;DHT22;34999;50.940;3.998;2022-07-21T04:17:01;18.00;99.90
48946;DHT22;34999;50.940;3.998;2022-07-21T04:19:35;18.10;99.90
48946;DHT22;34999;50.940;3.998;2022-07-21T04:22:44;18.10;99.90
48946;DHT22;34999;50.940;3.998;2022-07-21T04:25:34;18.10;99.90
48946;DHT22;34999;50.940;3.998;2022-07-21T04:28:03;18.00;99.90
48946;DHT22;34999;50.940;3.998;2022-07-21T04:30:32;18.00;99.90
48946;DHT22;34999;50.940;3.998;2022-07-21T04:33:01;18.00;99.90
48946;DHT22;34999;50.940;3.998;2022-07-21T04:35:29;18.00;99.90
48946;DHT22;34999;50.940;3.998;2022-07-21T04:37:57;18.00;99.90
48946;DHT22;34999;50.940;3.998;2022-07-21T04:40:26;17.90;99.90
48946;DHT22;34999;50.940;3.998;2022-07-21T04:42:54;17.90;99.90
48946;DHT22;34999;50.940;3.998;2022-07-21T04:45:23;17.90;99.90
48946;DHT22;34999;50.940;3.998;2022-07-21T04:47:54;17.90;99.90
48946;DHT22;34999;50.940;3.998;2022-07-21T04:50:24;17.90;99.90
48946;DHT22;34999;50.940;3.998;2022-07-21T04:52:53;17.80;99.90
48946;DHT22;34999;50.940;3.998;2022-07-21T04:55:22;17.80;99.90
48946;DHT22;34999;50.940;3.998;2022-07-21T04:57:51;17.80;99.90
48946;DHT22;34999;50.940;3.998;2022-07-21T05:00:22;17.80;99.90
48946;DHT22;34999;50.940;3.998;2022-07-21T05:02:53;17.80;99.90
48946;DHT22;34999;50.940;3.998;2022-07-21T05:05:22;17.80;99.90
48946;DHT22;34999;50.940;3.998;2022-07-21T05:07:51;17.80;99.90
48946;DHT22;34999;50.940;3.998;2022-07-21T05:10:19;17.80;99.90
48946;DHT22;34999;50.940;3.998;2022-07-21T05:12:48;17.80;99.90
48946;DHT22;34999;50.940;3.998;2022-07-21T05:15:17;17.80;99.90
48946;DHT22;34999;50.940;3.998;2022-07-21T05:17:45;17.80;99.90
48946;DHT22;34999;50.940;3.998;2022-07-21T05:20:15;17.80;99.90
48946;DHT22;34999;50.940;3.998;2022-07-21T05:22:43;17.80;99.90
48946;DHT22;34999;50.940;3.998;2022-07-21T05:25:12;17.80;99.90
48946;DHT22;34999;50.940;3.998;2022-07-21T05:27:40;17.80;99.90
48946;DHT22;34999;50.940;3.998;2022-07-21T05:30:10;17.80;99.90
48946;DHT22;34999;50.940;3.998;2022-07-21T05:32:38;17.80;99.90
48946;DHT22;34999;50.940;3.998;2022-07-21T05:35:15;17.80;99.90
48946;DHT22;34999;50.940;3.998;2022-07-21T05:37:44;17.80;99.90
48946;DHT22;34999;50.940;3.998;2022-07-21T05:40:14;17.80;99.90
48946;DHT22;34999;50.940;3.998;2022-07-21T05:42:42;17.80;99.90
48946;DHT22;34999;50.940;3.998;2022-07-21T05:45:11;17.80;99.90
48946;DHT22;34999;50.940;3.998;2022-07-21T05:47:40;17.80;99.90
48946;DHT22;34999;50.940;3.998;2022-07-21T05:50:09;17.80;99.90
48946;DHT22;34999;50.940;3.998;2022-07-21T05:52:39;17.80;99.90
48946;DHT22;34999;50.940;3.998;2022-07-21T05:55:09;17.80;99.90
48946;DHT22;34999;50.940;3.998;2022-07-21T05:57:38;17.80;99.90
48946;DHT22;34999;50.940;3.998;2022-07-21T06:00:14;17.80;99.90
48946;DHT22;34999;50.940;3.998;2022-07-21T06:02:42;17.90;99.90
48946;DHT22;34999;50.940;3.998;2022-07-21T06:05:10;17.90;99.90
48946;DHT22;34999;50.940;3.998;2022-07-21T06:07:41;17.90;99.90
48946;DHT22;34999;50.940;3.998;2022-07-21T06:10:09;17.90;99.90
48946;DHT22;34999;50.940;3.998;2022-07-21T06:12:42;17.90;99.90
48946;DHT22;34999;50.940;3.998;2022-07-21T06:15:11;17.90;99.90
48946;DHT22;34999;50.940;3.998;2022-07-21T06:17:40;17.90;99.90
48946;DHT22;34999;50.940;3.998;2022-07-21T06:20:09;17.90;99.90
48946;DHT22;34999;50.940;3.998;2022-07-21T06:22:38;17.90;99.90
48946;DHT22;34999;50.940;3.998;2022-07-21T06:25:08;18.00;99.90
48946;DHT22;34999;50.940;3.998;2022-07-21T06:27:37;18.00;99.90
48946;DHT22;34999;50.940;3.998;2022-07-21T06:30:06;18.00;99.90
48946;DHT22;34999;50.940;3.998;2022-07-21T06:32:35;18.10;99.90
48946;DHT22;34999;50.940;3.998;2022-07-21T06:35:04;18.10;99.90
48946;DHT22;34999;50.940;3.998;2022-07-21T06:37:32;18.10;99.90
48946;DHT22;34999;50.940;3.998;2022-07-21T06:40:04;18.20;99.90
48946;DHT22;34999;50.940;3.998;2022-07-21T06:42:33;18.10;99.90
48946;DHT22;34999;50.940;3.998;2022-07-21T06:45:02;18.20;99.90
48946;DHT22;34999;50.940;3.998;2022-07-21T06:47:31;18.20;99.90
48946;DHT22;34999;50.940;3.998;2022-07-21T06:50:00;18.20;99.90
48946;DHT22;34999;50.940;3.998;2022-07-21T06:52:33;18.20;99.90
48946;DHT22;34999;50.940;3.998;2022-07-21T06:55:02;18.30;99.90
48946;DHT22;34999;50.940;3.998;2022-07-21T06:57:31;18.30;99.90
48946;DHT22;34999;50.940;3.998;2022-07-21T07:00:01;18.30;99.90
48946;DHT22;34999;50.940;3.998;2022-07-21T07:02:29;18.30;99.90
48946;DHT22;34999;50.940;3.998;2022-07-21T07:04:58;18.30;99.90
48946;DHT22;34999;50.940;3.998;2022-07-21T07:07:33;18.40;99.90
48946;DHT22;34999;50.940;3.998;2022-07-21T07:10:02;18.40;99.90
48946;DHT22;34999;50.940;3.998;2022-07-21T07:12:31;18.40;99.90
48946;DHT22;34999;50.940;3.998;2022-07-21T07:15:20;18.40;99.90
48946;DHT22;34999;50.940;3.998;2022-07-21T07:17:50;18.50;99.90
48946;DHT22;34999;50.940;3.998;2022-07-21T07:20:18;18.50;99.90
48946;DHT22;34999;50.940;3.998;2022-07-21T07:22:47;18.40;99.90
48946;DHT22;34999;50.940;3.998;2022-07-21T07:28:26;18.40;99.90
48946;DHT22;34999;50.940;3.998;2022-07-21T07:30:57;18.40;99.90
48946;DHT22;34999;50.940;3.998;2022-07-21T07:33:25;18.40;99.90
48946;DHT22;34999;50.940;3.998;2022-07-21T07:35:54;18.40;99.90
48946;DHT22;34999;50.940;3.998;2022-07-21T07:38:24;18.40;99.90
48946;DHT22;34999;50.940;3.998;2022-07-21T07:40:52;18.40;99.90
48946;DHT22;34999;50.940;3.998;2022-07-21T07:43:21;18.40;99.90
48946;DHT22;34999;50.940;3.998;2022-07-21T07:45:49;18.30;99.90
48946;DHT22;34999;50.940;3.998;2022-07-21T07:48:19;18.30;99.90
48946;DHT22;34999;50.940;3.998;2022-07-21T07:50:48;18.40;99.90
48946;DHT22;34999;50.940;3.998;2022-07-21T07:53:16;18.40;99.90
48946;DHT22;34999;50.940;3.998;2022-07-21T07:55:44;18.40;99.90
48946;DHT22;34999;50.940;3.998;2022-07-21T07:58:13;18.50;99.90
48946;DHT22;34999;50.940;3.998;2022-07-21T08:00:41;18.50;99.90
48946;DHT22;34999;50.940;3.998;2022-07-21T08:03:31;18.60;99.90
48946;DHT22;34999;50.940;3.998;2022-07-21T08:05:59;18.60;99.90
48946;DHT22;34999;50.940;3.998;2022-07-21T08:08:30;18.60;99.90
48946;DHT22;34999;50.940;3.998;2022-07-21T08:10:59;18.60;99.90
48946;DHT22;34999;50.940;3.998;2022-07-21T08:13:27;18.60;99.90
48946;DHT22;34999;50.940;3.998;2022-07-21T08:15:56;18.60;99.90
48946;DHT22;34999;50.940;3.998;2022-07-21T08:18:24;18.60;99.90
48946;DHT22;34999;50.940;3.998;2022-07-21T08:20:55;18.60;99.90
48946;DHT22;34999;50.940;3.998;2022-07-21T08:23:23;18.60;99.90
48946;DHT22;34999;50.940;3.998;2022-07-21T08:25:52;18.50;99.90
48946;DHT22;34999;50.940;3.998;2022-07-21T08:28:20;18.50;99.90
48946;DHT22;34999;50.940;3.998;2022-07-21T08:30:48;18.50;99.90
48946;DHT22;34999;50.940;3.998;2022-07-21T08:33:17;18.50;99.90
48946;DHT22;34999;50.940;3.998;2022-07-21T08:35:45;18.40;99.90
48946;DHT22;34999;50.940;3.998;2022-07-21T08:38:18;18.30;99.90
48946;DHT22;34999;50.940;3.998;2022-07-21T08:40:47;18.30;99.90
48946;DHT22;34999;50.940;3.998;2022-07-21T08:43:15;18.30;99.90
48946;DHT22;34999;50.940;3.998;2022-07-21T08:45:44;18.40;99.90
48946;DHT22;34999;50.940;3.998;2022-07-21T08:48:12;18.40;99.90
48946;DHT22;34999;50.940;3.998;2022-07-21T08:50:46;18.40;99.90
48946;DHT22;34999;50.940;3.998;2022-07-21T08:53:16;18.50;99.90
48946;DHT22;34999;50.940;3.998;2022-07-21T08:55:44;18.50;99.90
48946;DHT22;34999;50.940;3.998;2022-07-21T08:58:13;18.50;99.90
48946;DHT22;34999;50.940;3.998;2022-07-21T09:00:44;18.50;99.90
48946;DHT22;34999;50.940;3.998;2022-07-21T09:03:16;18.60;99.90
48946;DHT22;34999;50.940;3.998;2022-07-21T09:06:02;18.50;99.90
48946;DHT22;34999;50.940;3.998;2022-07-21T09:08:34;18.50;99.90
48946;DHT22;34999;50.940;3.998;2022-07-21T09:11:15;18.60;99.90
48946;DHT22;34999;50.940;3.998;2022-07-21T09:13:46;18.60;99.90
48946;DHT22;34999;50.940;3.998;2022-07-21T09:16:36;18.70;99.90
48946;DHT22;34999;50.940;3.998;2022-07-21T09:19:06;18.70;99.90
48946;DHT22;34999;50.940;3.998;2022-07-21T09:21:35;18.70;99.90
48946;DHT22;34999;50.940;3.998;2022-07-21T09:24:19;18.70;99.90
48946;DHT22;34999;50.940;3.998;2022-07-21T09:27:03;18.70;99.90
48946;DHT22;34999;50.940;3.998;2022-07-21T09:29:35;18.60;99.90
48946;DHT22;34999;50.940;3.998;2022-07-21T09:32:22;18.70;99.90
48946;DHT22;34999;50.940;3.998;2022-07-21T09:34:52;18.60;99.90
48946;DHT22;34999;50.940;3.998;2022-07-21T09:37:22;18.60;99.90
48946;DHT22;34999;50.940;3.998;2022-07-21T09:39:55;18.60;99.90
48946;DHT22;34999;50.940;3.998;2022-07-21T09:42:24;18.70;99.90
48946;DHT22;34999;50.940;3.998;2022-07-21T09:44:55;18.70;99.90
48946;DHT22;34999;50.940;3.998;2022-07-21T09:47:27;18.70;99.90
48946;DHT22;34999;50.940;3.998;2022-07-21T09:49:57;18.70;99.90
48946;DHT22;34999;50.940;3.998;2022-07-21T09:52:46;18.80;99.90
48946;DHT22;34999;50.940;3.998;2022-07-21T09:55:16;18.80;99.90
48946;DHT22;34999;50.940;3.998;2022-07-21T09:57:45;18.80;99.90
48946;DHT22;34999;50.940;3.998;2022-07-21T10:00:17;18.90;99.90
48946;DHT22;34999;50.940;3.998;2022-07-21T10:03:20;18.90;99.90
48946;DHT22;34999;50.940;3.998;2022-07-21T10:05:49;18.90;99.90
48946;DHT22;34999;50.940;3.998;2022-07-21T10:08:18;19.00;99.90
48946;DHT22;34999;50.940;3.998;2022-07-21T10:10:48;19.10;99.90
48946;DHT22;34999;50.940;3.998;2022-07-21T10:13:38;19.30;99.90
48946;DHT22;34999;50.940;3.998;2022-07-21T10:16:08;19.50;99.90
48946;DHT22;34999;50.940;3.998;2022-07-21T10:18:44;19.60;99.90
48946;DHT22;34999;50.940;3.998;2022-07-21T10:21:29;19.60;99.90
48946;DHT22;34999;50.940;3.998;2022-07-21T10:24:00;19.70;99.90
48946;DHT22;34999;50.940;3.998;2022-07-21T10:26:30;19.80;99.90
48946;DHT22;34999;50.940;3.998;2022-07-21T10:28:58;19.80;99.90
48946;DHT22;34999;50.940;3.998;2022-07-21T10:31:26;20.00;99.90
48946;DHT22;34999;50.940;3.998;2022-07-21T10:33:58;20.30;99.90
48946;DHT22;34999;50.940;3.998;2022-07-21T10:36:43;20.40;99.90
48946;DHT22;34999;50.940;3.998;2022-07-21T10:39:25;20.30;99.90
48946;DHT22;34999;50.940;3.998;2022-07-21T10:41:57;20.00;99.90
48946;DHT22;34999;50.940;3.998;2022-07-21T10:44:39;19.90;99.90
48946;DHT22;34999;50.940;3.998;2022-07-21T10:47:09;19.80;99.90
48946;DHT22;34999;50.940;3.998;2022-07-21T10:49:52;19.70;99.90
48946;DHT22;34999;50.940;3.998;2022-07-21T10:52:58;19.70;99.90
48946;DHT22;34999;50.940;3.998;2022-07-21T10:55:29;19.70;99.90
48946;DHT22;34999;50.940;3.998;2022-07-21T10:58:13;19.70;99.90
48946;DHT22;34999;50.940;3.998;2022-07-21T11:00:49;19.60;99.90
48946;DHT22;34999;50.940;3.998;2022-07-21T11:03:26;19.60;99.90
48946;DHT22;34999;50.940;3.998;2022-07-21T11:06:16;19.50;99.90
48946;DHT22;34999;50.940;3.998;2022-07-21T11:09:09;19.50;99.90
48946;DHT22;34999;50.940;3.998;2022-07-21T11:11:40;19.50;99.90
48946;DHT22;34999;50.940;3.998;2022-07-21T11:14:37;19.50;99.90
48946;DHT22;34999;50.940;3.998;2022-07-21T11:17:06;19.50;99.90
48946;DHT22;34999;50.940;3.998;2022-07-21T11:19:42;19.50;99.90
48946;DHT22;34999;50.940;3.998;2022-07-21T11:22:14;19.50;99.90
48946;DHT22;34999;50.940;3.998;2022-07-21T11:24:44;19.50;99.90
48946;DHT22;34999;50.940;3.998;2022-07-21T11:27:13;19.50;99.90
48946;DHT22;34999;50.940;3.998;2022-07-21T11:29:46;19.60;99.90
48946;DHT22;34999;50.940;3.998;2022-07-21T11:32:15;19.80;99.90
48946;DHT22;34999;50.940;3.998;2022-07-21T11:34:47;19.90;99.90
48946;DHT22;34999;50.940;3.998;2022-07-21T11:37:17;20.10;99.90
48946;DHT22;34999;50.940;3.998;2022-07-21T11:40:05;20.20;99.90
48946;DHT22;34999;50.940;3.998;2022-07-21T11:42:35;20.50;99.90
48946;DHT22;34999;50.940;3.998;2022-07-21T11:45:08;20.50;99.90
48946;DHT22;34999;50.940;3.998;2022-07-21T11:47:37;20.50;99.90
48946;DHT22;34999;50.940;3.998;2022-07-21T11:50:07;20.40;99.90
48946;DHT22;34999;50.940;3.998;2022-07-21T11:52:37;20.40;99.90
48946;DHT22;34999;50.940;3.998;2022-07-21T11:55:07;20.40;99.90
48946;DHT22;34999;50.940;3.998;2022-07-21T11:57:41;20.20;99.90
48946;DHT22;34999;50.940;3.998;2022-07-21T12:00:12;20.00;99.90
48946;DHT22;34999;50.940;3.998;2022-07-21T12:02:47;19.80;99.90
48946;DHT22;34999;50.940;3.998;2022-07-21T12:05:16;19.70;99.90
48946;DHT22;34999;50.940;3.998;2022-07-21T12:07:46;19.60;99.90
48946;DHT22;34999;50.940;3.998;2022-07-21T12:10:22;19.50;99.90
48946;DHT22;34999;50.940;3.998;2022-07-21T12:12:51;19.50;99.90
48946;DHT22;34999;50.940;3.998;2022-07-21T12:15:22;19.40;99.90
48946;DHT22;34999;50.940;3.998;2022-07-21T12:17:52;19.50;99.90
48946;DHT22;34999;50.940;3.998;2022-07-21T12:20:25;19.50;99.90
48946;DHT22;34999;50.940;3.998;2022-07-21T12:22:54;19.60;99.90
48946;DHT22;34999;50.940;3.998;2022-07-21T12:25:32;19.80;99.90
48946;DHT22;34999;50.940;3.998;2022-07-21T12:28:01;19.90;99.90
48946;DHT22;34999;50.940;3.998;2022-07-21T12:30:34;19.90;99.90
48946;DHT22;34999;50.940;3.998;2022-07-21T12:33:05;20.10;99.90
48946;DHT22;34999;50.940;3.998;2022-07-21T12:35:35;20.30;99.90
48946;DHT22;34999;50.940;3.998;2022-07-21T12:38:07;20.30;99.90
48946;DHT22;34999;50.940;3.998;2022-07-21T12:40:37;20.40;99.90
48946;DHT22;34999;50.940;3.998;2022-07-21T12:43:21;20.40;99.90
48946;DHT22;34999;50.940;3.998;2022-07-21T12:45:53;20.50;99.90
48946;DHT22;34999;50.940;3.998;2022-07-21T12:48:24;20.50;99.90
48946;DHT22;34999;50.940;3.998;2022-07-21T12:51:05;20.60;99.90
48946;DHT22;34999;50.940;3.998;2022-07-21T12:53:35;20.30;99.90
48946;DHT22;34999;50.940;3.998;2022-07-21T12:56:04;20.10;99.90
48946;DHT22;34999;50.940;3.998;2022-07-21T12:58:33;20.10;99.90
48946;DHT22;34999;50.940;3.998;2022-07-21T13:01:03;20.00;99.90
48946;DHT22;34999;50.940;3.998;2022-07-21T13:03:34;20.00;99.90
48946;DHT22;34999;50.940;3.998;2022-07-21T13:06:04;19.90;99.90
48946;DHT22;34999;50.940;3.998;2022-07-21T13:08:36;19.90;99.90
48946;DHT22;34999;50.940;3.998;2022-07-21T13:11:06;20.00;99.90
48946;DHT22;34999;50.940;3.998;2022-07-21T13:13:35;20.00;99.90
48946;DHT22;34999;50.940;3.998;2022-07-21T13:16:07;20.10;99.90
48946;DHT22;34999;50.940;3.998;2022-07-21T13:18:35;20.20;99.90
48946;DHT22;34999;50.940;3.998;2022-07-21T13:21:04;20.30;99.90
48946;DHT22;34999;50.940;3.998;2022-07-21T13:23:33;20.30;99.90
48946;DHT22;34999;50.940;3.998;2022-07-21T13:26:01;20.30;99.90
48946;DHT22;34999;50.940;3.998;2022-07-21T13:28:33;20.20;99.90
48946;DHT22;34999;50.940;3.998;2022-07-21T13:31:05;20.20;99.90
48946;DHT22;34999;50.940;3.998;2022-07-21T13:33:35;20.10;99.90
48946;DHT22;34999;50.940;3.998;2022-07-21T13:36:05;20.10;99.90
48946;DHT22;34999;50.940;3.998;2022-07-21T13:38:33;20.00;99.90
48946;DHT22;34999;50.940;3.998;2022-07-21T13:41:02;19.90;99.90
48946;DHT22;34999;50.940;3.998;2022-07-21T13:43:50;20.00;99.90
48946;DHT22;34999;50.940;3.998;2022-07-21T13:46:21;20.00;99.90
48946;DHT22;34999;50.940;3.998;2022-07-21T13:48:50;20.00;99.90
48946;DHT22;34999;50.940;3.998;2022-07-21T13:51:19;20.10;99.90
48946;DHT22;34999;50.940;3.998;2022-07-21T13:53:50;20.40;99.90
48946;DHT22;34999;50.940;3.998;2022-07-21T13:56:20;20.60;99.90
48946;DHT22;34999;50.940;3.998;2022-07-21T13:58:49;20.80;99.90
48946;DHT22;34999;50.940;3.998;2022-07-21T14:01:17;20.90;99.90
48946;DHT22;34999;50.940;3.998;2022-07-21T14:03:48;20.80;99.90
48946;DHT22;34999;50.940;3.998;2022-07-21T14:06:18;20.70;99.90
48946;DHT22;34999;50.940;3.998;2022-07-21T14:08:46;20.80;99.90
48946;DHT22;34999;50.940;3.998;2022-07-21T14:11:15;21.10;99.90
48946;DHT22;34999;50.940;3.998;2022-07-21T14:13:43;21.40;99.90
48946;DHT22;34999;50.940;3.998;2022-07-21T14:16:12;21.70;99.90
48946;DHT22;34999;50.940;3.998;2022-07-21T14:18:40;21.90;99.90
48946;DHT22;34999;50.940;3.998;2022-07-21T14:21:11;21.90;99.90
48946;DHT22;34999;50.940;3.998;2022-07-21T14:23:40;21.60;99.90
48946;DHT22;34999;50.940;3.998;2022-07-21T14:26:09;21.50;99.90
48946;DHT22;34999;50.940;3.998;2022-07-21T14:28:38;21.40;99.90
48946;DHT22;34999;50.940;3.998;2022-07-21T14:31:06;21.10;99.90
48946;DHT22;34999;50.940;3.998;2022-07-21T14:33:35;21.20;99.90
48946;DHT22;34999;50.940;3.998;2022-07-21T14:36:03;21.30;99.90
48946;DHT22;34999;50.940;3.998;2022-07-21T14:38:33;21.40;99.90
48946;DHT22;34999;50.940;3.998;2022-07-21T14:41:02;21.40;99.90
48946;DHT22;34999;50.940;3.998;2022-07-21T14:43:30;21.40;99.90
48946;DHT22;34999;50.940;3.998;2022-07-21T14:45:58;21.30;99.90
48946;DHT22;34999;50.940;3.998;2022-07-21T14:48:27;21.20;99.90
48946;DHT22;34999;50.940;3.998;2022-07-21T14:50:55;21.00;99.90
48946;DHT22;34999;50.940;3.998;2022-07-21T14:53:24;21.00;99.90
48946;DHT22;34999;50.940;3.998;2022-07-21T14:55:53;21.20;99.90
48946;DHT22;34999;50.940;3.998;2022-07-21T14:58:22;21.40;99.90
48946;DHT22;34999;50.940;3.998;2022-07-21T15:00:50;21.40;99.90
48946;DHT22;34999;50.940;3.998;2022-07-21T15:03:19;21.30;99.90
48946;DHT22;34999;50.940;3.998;2022-07-21T15:05:48;21.20;99.90
48946;DHT22;34999;50.940;3.998;2022-07-21T15:08:18;21.40;99.90
48946;DHT22;34999;50.940;3.998;2022-07-21T15:10:47;22.00;99.90
48946;DHT22;34999;50.940;3.998;2022-07-21T15:13:17;22.40;99.90
48946;DHT22;34999;50.940;3.998;2022-07-21T15:15:46;22.70;99.90
48946;DHT22;34999;50.940;3.998;2022-07-21T15:18:14;22.80;99.90
48946;DHT22;34999;50.940;3.998;2022-07-21T15:20:44;22.80;99.90
48946;DHT22;34999;50.940;3.998;2022-07-21T15:23:13;22.60;99.90
48946;DHT22;34999;50.940;3.998;2022-07-21T15:25:41;22.30;99.90
48946;DHT22;34999;50.940;3.998;2022-07-21T15:28:13;22.00;99.90
48946;DHT22;34999;50.940;3.998;2022-07-21T15:30:43;21.80;99.90
48946;DHT22;34999;50.940;3.998;2022-07-21T15:33:13;21.70;99.90
48946;DHT22;34999;50.940;3.998;2022-07-21T15:35:41;21.60;99.90
48946;DHT22;34999;50.940;3.998;2022-07-21T15:38:09;21.40;99.90
48946;DHT22;34999;50.940;3.998;2022-07-21T15:40:39;21.50;99.90
48946;DHT22;34999;50.940;3.998;2022-07-21T15:43:08;21.50;99.90
48946;DHT22;34999;50.940;3.998;2022-07-21T15:45:37;21.50;99.90
48946;DHT22;34999;50.940;3.998;2022-07-21T15:48:07;21.50;99.90
48946;DHT22;34999;50.940;3.998;2022-07-21T15:50:35;21.50;99.90
48946;DHT22;34999;50.940;3.998;2022-07-21T15:53:04;21.60;99.90
48946;DHT22;34999;50.940;3.998;2022-07-21T15:55:33;21.60;99.90
48946;DHT22;34999;50.940;3.998;2022-07-21T15:58:02;21.60;99.90
48946;DHT22;34999;50.940;3.998;2022-07-21T16:00:31;21.60;99.90